createdAt,value
2018-05-23T00:00:34.331Z,19.60
2018-05-23T00:01:35.403Z,19.60
2018-05-23T00:02:37.248Z,19.70
2018-05-23T00:03:38.350Z,19.80
2018-05-23T00:04:39.419Z,19.70
2018-05-23T00:05:41.211Z,19.70
2018-05-23T00:06:42.282Z,19.70
2018-05-23T00:07:43.355Z,19.70
2018-05-23T00:08:44.398Z,19.70
2018-05-23T00:09:45.463Z,19.70
2018-05-23T00:10:46.543Z,19.70
2018-05-23T00:11:47.627Z,19.70
2018-05-23T00:12:48.739Z,19.70
2018-05-23T00:13:49.787Z,19.60
2018-05-23T00:14:50.869Z,19.70
2018-05-23T00:15:51.950Z,19.70
2018-05-23T00:16:53.009Z,19.70
2018-05-23T00:17:54.836Z,19.70
2018-05-23T00:18:55.898Z,19.80
2018-05-23T00:19:57.702Z,19.80
2018-05-23T00:20:58.760Z,19.80
2018-05-23T00:21:59.984Z,19.80
2018-05-23T00:23:01.144Z,19.80
2018-05-23T00:24:02.143Z,19.80
2018-05-23T00:25:03.207Z,19.80
2018-05-23T00:26:04.254Z,19.80
2018-05-23T00:27:06.055Z,19.80
2018-05-23T00:28:07.135Z,19.80
2018-05-23T00:29:08.937Z,19.80
2018-05-23T00:30:09.999Z,19.80
2018-05-23T00:31:11.054Z,19.80
2018-05-23T00:32:12.118Z,19.80
2018-05-23T00:33:13.182Z,19.80
2018-05-23T00:34:15.034Z,19.80
2018-05-23T00:35:16.103Z,19.80
2018-05-23T00:36:17.159Z,19.80
2018-05-23T00:37:18.215Z,19.90
2018-05-23T00:38:19.302Z,19.80
2018-05-23T00:39:20.364Z,19.70
2018-05-23T00:40:21.446Z,19.70
2018-05-23T00:41:23.264Z,19.70
2018-05-23T00:42:24.336Z,19.60
2018-05-23T00:43:25.439Z,19.60
2018-05-23T00:44:26.525Z,19.60
2018-05-23T00:45:27.595Z,19.50
2018-05-23T00:46:28.781Z,19.60
2018-05-23T00:47:29.862Z,19.70
2018-05-23T00:48:30.929Z,19.60
2018-05-23T00:49:32.746Z,19.60
2018-05-23T00:50:33.799Z,19.60
2018-05-23T00:51:34.882Z,19.60
2018-05-23T00:52:35.951Z,19.60
2018-05-23T00:53:37.019Z,19.50
2018-05-23T00:54:38.081Z,19.50
2018-05-23T00:55:39.162Z,19.50
2018-05-23T00:56:40.947Z,19.50
2018-05-23T00:57:42.047Z,19.40
2018-05-23T00:58:43.855Z,19.40
2018-05-23T00:59:44.921Z,19.40
2018-05-23T01:00:46.721Z,19.40
2018-05-23T01:01:47.842Z,19.40
2018-05-23T01:02:48.905Z,19.50
2018-05-23T01:03:49.990Z,19.50
2018-05-23T01:04:51.059Z,19.40
2018-05-23T01:05:54.579Z,19.50
2018-05-23T01:06:55.832Z,19.50
2018-05-23T01:07:56.889Z,19.50
2018-05-23T01:08:57.974Z,19.60
2018-05-23T01:09:59.787Z,19.40
2018-05-23T01:11:00.872Z,19.40
2018-05-23T01:12:01.999Z,19.40
2018-05-23T01:13:03.819Z,19.40
2018-05-23T01:14:04.903Z,19.40
2018-05-23T01:15:05.976Z,19.40
2018-05-23T01:16:07.058Z,19.40
2018-05-23T01:17:08.865Z,19.40
2018-05-23T01:18:09.939Z,19.40
2018-05-23T01:19:11.763Z,19.40
2018-05-23T01:20:12.844Z,19.40
2018-05-23T01:21:13.918Z,19.40
2018-05-23T01:22:15.007Z,19.40
2018-05-23T01:23:16.062Z,19.40
2018-05-23T01:24:17.125Z,19.40
2018-05-23T01:25:18.940Z,19.40
2018-05-23T01:26:20.017Z,19.40
2018-05-23T01:27:21.810Z,19.40
2018-05-23T01:28:22.887Z,19.40
2018-05-23T01:29:23.946Z,19.40
2018-05-23T01:30:25.026Z,19.50
2018-05-23T01:31:26.091Z,19.40
2018-05-23T01:32:27.146Z,19.40
2018-05-23T01:33:28.948Z,19.40
2018-05-23T01:34:30.028Z,19.40
2018-05-23T01:35:31.832Z,19.40
2018-05-23T01:36:32.901Z,19.40
2018-05-23T01:37:33.992Z,19.40
2018-05-23T01:38:35.048Z,19.40
2018-05-23T01:39:36.859Z,19.30
2018-05-23T01:40:37.906Z,19.30
2018-05-23T01:41:38.960Z,19.30
2018-05-23T01:42:40.772Z,19.20
2018-05-23T01:43:43.633Z,19.20
2018-05-23T01:44:46.941Z,19.20
2018-05-23T01:45:50.147Z,19.20
2018-05-23T01:46:51.309Z,19.20
2018-05-23T01:47:52.920Z,19.20
2018-05-23T01:49:06.733Z,19.20
2018-05-23T01:50:07.919Z,19.20
2018-05-23T01:51:09.084Z,19.20
2018-05-23T01:52:10.291Z,19.30
2018-05-23T01:53:11.751Z,19.30
2018-05-23T01:54:13.234Z,19.10
2018-05-23T01:55:16.996Z,19.30
2018-05-23T01:56:18.492Z,19.30
2018-05-23T01:57:20.804Z,19.40
2018-05-23T01:58:22.927Z,19.20
2018-05-23T01:59:26.600Z,19.30
2018-05-23T02:00:28.813Z,19.30
2018-05-23T02:01:30.002Z,19.30
2018-05-23T02:02:31.211Z,19.30
2018-05-23T02:03:32.333Z,19.30
2018-05-23T02:04:33.502Z,19.30
2018-05-23T02:06:42.450Z,19.30
2018-05-23T02:07:43.524Z,19.30
2018-05-23T02:08:44.584Z,19.30
2018-05-23T02:09:46.397Z,19.30
2018-05-23T02:10:47.489Z,19.30
2018-05-23T02:11:48.558Z,19.30
2018-05-23T02:12:49.610Z,19.30
2018-05-23T02:13:50.683Z,19.30
2018-05-23T02:14:51.763Z,19.30
2018-05-23T02:15:52.838Z,19.30
2018-05-23T02:16:53.916Z,19.30
2018-05-23T02:17:54.987Z,19.30
2018-05-23T02:18:56.042Z,19.30
2018-05-23T02:19:57.840Z,19.30
2018-05-23T02:20:58.922Z,19.20
2018-05-23T02:21:59.991Z,19.20
2018-05-23T02:23:01.059Z,19.20
2018-05-23T02:24:02.147Z,19.20
2018-05-23T02:25:03.276Z,19.10
2018-05-23T02:26:04.342Z,19.10
2018-05-23T02:27:05.410Z,19.10
2018-05-23T02:28:07.216Z,19.10
2018-05-23T02:29:08.290Z,19.10
2018-05-23T02:30:09.360Z,19.10
2018-05-23T02:31:10.440Z,19.20
2018-05-23T02:32:11.516Z,19.20
2018-05-23T02:33:12.557Z,19.20
2018-05-23T02:34:13.618Z,19.30
2018-05-23T02:35:14.706Z,19.20
2018-05-23T02:36:15.767Z,19.20
2018-05-23T02:37:18.328Z,19.20
2018-05-23T02:38:21.668Z,19.10
2018-05-23T02:39:23.281Z,19.10
2018-05-23T02:40:24.719Z,19.10
2018-05-23T02:41:26.183Z,19.00
2018-05-23T02:42:28.509Z,19.00
2018-05-23T02:43:30.915Z,19.00
2018-05-23T02:44:33.215Z,19.00
2018-05-23T02:45:35.092Z,19.00
2018-05-23T02:46:36.256Z,19.10
2018-05-23T02:47:37.421Z,19.10
2018-05-23T02:48:40.077Z,19.10
2018-05-23T02:49:42.460Z,19.10
2018-05-23T02:50:43.691Z,19.10
2018-05-23T02:51:44.786Z,19.10
2018-05-23T02:52:46.599Z,19.10
2018-05-23T02:53:47.669Z,19.10
2018-05-23T02:54:49.511Z,19.10
2018-05-23T02:55:50.573Z,19.10
2018-05-23T02:56:51.627Z,19.20
2018-05-23T02:57:52.702Z,19.10
2018-05-23T02:58:53.783Z,19.10
2018-05-23T02:59:54.856Z,19.10
2018-05-23T03:00:55.927Z,19.10
2018-05-23T03:01:56.996Z,19.00
2018-05-23T03:02:58.109Z,19.10
2018-05-23T03:03:59.125Z,19.00
2018-05-23T03:05:00.177Z,19.00
2018-05-23T03:06:01.251Z,19.00
2018-05-23T03:07:02.327Z,19.00
2018-05-23T03:08:03.418Z,19.00
2018-05-23T03:09:04.488Z,18.90
2018-05-23T03:10:05.593Z,19.00
2018-05-23T03:11:06.668Z,18.90
2018-05-23T03:12:07.718Z,18.90
2018-05-23T03:13:08.788Z,18.90
2018-05-23T03:14:09.859Z,18.90
2018-05-23T03:15:10.947Z,18.80
2018-05-23T03:16:12.000Z,18.80
2018-05-23T03:17:13.061Z,18.80
2018-05-23T03:18:14.111Z,18.70
2018-05-23T03:19:15.170Z,18.70
2018-05-23T03:20:16.249Z,18.60
2018-05-23T03:21:17.334Z,18.70
2018-05-23T03:22:18.411Z,18.70
2018-05-23T03:23:19.463Z,18.60
2018-05-23T03:24:20.522Z,18.70
2018-05-23T03:25:21.580Z,18.70
2018-05-23T03:26:24.793Z,18.70
2018-05-23T03:27:27.109Z,18.70
2018-05-23T03:28:29.280Z,18.60
2018-05-23T03:29:30.338Z,18.70
2018-05-23T03:30:31.401Z,18.70
2018-05-23T03:31:32.482Z,18.70
2018-05-23T03:32:34.300Z,18.70
2018-05-23T03:33:35.479Z,18.70
2018-05-23T03:34:36.563Z,18.70
2018-05-23T03:35:37.720Z,18.70
2018-05-23T03:36:38.795Z,18.70
2018-05-23T03:37:39.876Z,18.70
2018-05-23T03:38:40.951Z,18.70
2018-05-23T03:39:42.042Z,18.80
2018-05-23T03:40:43.871Z,18.80
2018-05-23T03:41:44.971Z,18.80
2018-05-23T03:42:46.050Z,18.80
2018-05-23T03:43:47.110Z,18.80
2018-05-23T03:44:48.204Z,18.90
2018-05-23T03:45:49.295Z,18.90
2018-05-23T03:46:50.355Z,18.90
2018-05-23T03:47:51.425Z,18.90
2018-05-23T03:50:00.245Z,18.90
2018-05-23T03:51:02.054Z,18.90
2018-05-23T03:52:03.149Z,18.90
2018-05-23T03:53:04.223Z,18.90
2018-05-23T03:54:05.288Z,19.00
2018-05-23T03:55:07.086Z,19.00
2018-05-23T03:56:08.139Z,19.00
2018-05-23T03:57:09.207Z,18.90
2018-05-23T03:58:11.027Z,19.00
2018-05-23T03:59:12.108Z,18.90
2018-05-23T04:00:25.568Z,18.90
2018-05-23T04:03:11.731Z,18.90
2018-05-23T04:04:25.088Z,18.90
2018-05-23T04:05:39.271Z,18.80
2018-05-23T04:06:52.609Z,18.80
2018-05-23T04:07:53.674Z,18.70
2018-05-23T04:08:54.751Z,18.70
2018-05-23T04:09:55.835Z,18.70
2018-05-23T04:10:56.925Z,18.70
2018-05-23T04:11:58.011Z,18.70
2018-05-23T04:12:59.088Z,18.70
2018-05-23T04:14:00.167Z,18.70
2018-05-23T04:15:01.227Z,18.60
2018-05-23T04:16:02.311Z,18.60
2018-05-23T04:17:03.391Z,18.60
2018-05-23T04:18:04.507Z,18.60
2018-05-23T04:19:05.572Z,18.60
2018-05-23T04:20:06.660Z,18.50
2018-05-23T04:21:07.751Z,18.60
2018-05-23T04:22:08.838Z,18.60
2018-05-23T04:23:09.906Z,18.60
2018-05-23T04:24:10.971Z,18.60
2018-05-23T04:25:12.060Z,18.70
2018-05-23T04:26:13.116Z,18.60
2018-05-23T04:27:14.187Z,18.60
2018-05-23T04:28:15.248Z,18.60
2018-05-23T04:29:16.295Z,18.60
2018-05-23T04:30:18.098Z,18.60
2018-05-23T04:31:19.841Z,18.70
2018-05-23T04:32:22.121Z,18.60
2018-05-23T04:33:23.505Z,18.60
2018-05-23T04:34:24.711Z,18.60
2018-05-23T04:35:26.623Z,18.60
2018-05-23T04:36:27.823Z,18.60
2018-05-23T04:37:29.056Z,18.60
2018-05-23T04:38:30.316Z,18.70
2018-05-23T04:39:31.500Z,18.70
2018-05-23T04:40:32.639Z,18.70
2018-05-23T04:41:33.793Z,18.70
2018-05-23T04:42:35.702Z,18.70
2018-05-23T04:43:36.891Z,18.70
2018-05-23T04:44:38.852Z,18.70
2018-05-23T04:45:39.936Z,18.70
2018-05-23T04:46:41.007Z,18.70
2018-05-23T04:47:42.087Z,18.70
2018-05-23T04:48:43.179Z,18.60
2018-05-23T04:49:44.237Z,18.60
2018-05-23T04:50:45.308Z,18.60
2018-05-23T04:51:46.366Z,18.70
2018-05-23T04:52:48.111Z,18.60
2018-05-23T04:53:49.175Z,18.60
2018-05-23T04:54:50.271Z,18.70
2018-05-23T04:55:51.338Z,18.70
2018-05-23T04:56:52.431Z,18.60
2018-05-23T04:57:54.235Z,18.60
2018-05-23T04:58:55.295Z,18.60
2018-05-23T04:59:56.369Z,18.60
2018-05-23T05:00:57.433Z,18.60
2018-05-23T05:01:58.493Z,18.60
2018-05-23T05:02:59.567Z,18.60
2018-05-23T05:04:00.630Z,18.60
2018-05-23T05:05:01.723Z,18.50
2018-05-23T05:06:02.788Z,18.50
2018-05-23T05:07:03.908Z,18.50
2018-05-23T05:08:04.971Z,18.50
2018-05-23T05:09:06.052Z,18.50
2018-05-23T05:10:08.091Z,18.60
2018-05-23T05:11:09.871Z,18.50
2018-05-23T05:12:10.946Z,18.50
2018-05-23T05:13:12.003Z,18.50
2018-05-23T05:14:13.807Z,18.60
2018-05-23T05:15:14.876Z,18.60
2018-05-23T05:16:15.946Z,18.60
2018-05-23T05:17:18.752Z,18.60
2018-05-23T05:18:19.829Z,18.60
2018-05-23T05:19:20.892Z,18.60
2018-05-23T05:20:21.970Z,18.60
2018-05-23T05:21:23.791Z,18.50
2018-05-23T05:22:24.847Z,18.50
2018-05-23T05:23:26.670Z,18.60
2018-05-23T05:24:28.664Z,18.60
2018-05-23T05:25:30.499Z,18.60
2018-05-23T05:26:32.921Z,18.60
2018-05-23T05:27:34.007Z,18.60
2018-05-23T05:28:35.066Z,18.70
2018-05-23T05:29:36.143Z,18.70
2018-05-23T05:30:37.879Z,18.70
2018-05-23T05:31:39.558Z,18.70
2018-05-23T05:32:40.626Z,18.70
2018-05-23T05:33:41.690Z,18.70
2018-05-23T05:34:42.761Z,18.70
2018-05-23T05:35:43.838Z,18.70
2018-05-23T05:36:44.886Z,18.80
2018-05-23T05:37:45.943Z,18.70
2018-05-23T05:38:47.064Z,18.70
2018-05-23T05:39:48.822Z,18.80
2018-05-23T05:40:50.619Z,18.80
2018-05-23T05:41:52.233Z,18.70
2018-05-23T05:42:53.310Z,18.80
2018-05-23T05:43:54.369Z,18.90
2018-05-23T05:44:55.481Z,19.00
2018-05-23T05:45:57.279Z,18.90
2018-05-23T05:46:59.234Z,18.80
2018-05-23T05:48:00.947Z,19.00
2018-05-23T05:49:02.027Z,18.90
2018-05-23T05:50:03.075Z,19.00
2018-05-23T05:51:04.158Z,18.90
2018-05-23T05:52:05.231Z,19.00
2018-05-23T05:53:06.295Z,18.90
2018-05-23T05:54:07.371Z,18.90
2018-05-23T05:55:10.564Z,18.90
2018-05-23T05:56:11.646Z,18.90
2018-05-23T05:57:12.723Z,18.90
2018-05-23T05:58:14.534Z,18.90
2018-05-23T05:59:15.667Z,18.90
2018-05-23T06:00:16.746Z,19.00
2018-05-23T06:01:17.796Z,18.90
2018-05-23T06:02:18.875Z,19.00
2018-05-23T06:03:19.971Z,18.90
2018-05-23T06:04:21.829Z,18.90
2018-05-23T06:05:22.907Z,19.00
2018-05-23T06:06:24.705Z,19.00
2018-05-23T06:07:25.784Z,19.00
2018-05-23T06:08:27.604Z,19.10
2018-05-23T06:09:28.729Z,19.10
2018-05-23T06:10:29.745Z,19.10
2018-05-23T06:11:30.804Z,19.20
2018-05-23T06:12:31.870Z,19.20
2018-05-23T06:13:32.948Z,19.20
2018-05-23T06:14:34.066Z,19.20
2018-05-23T06:15:35.169Z,19.20
2018-05-23T06:16:36.223Z,19.20
2018-05-23T06:17:37.300Z,19.30
2018-05-23T06:18:38.375Z,19.20
2018-05-23T06:19:39.463Z,19.20
2018-05-23T06:20:41.311Z,19.30
2018-05-23T06:21:42.417Z,19.20
2018-05-23T06:22:43.476Z,19.30
2018-05-23T06:23:44.542Z,19.20
2018-05-23T06:24:45.606Z,19.30
2018-05-23T06:25:46.663Z,19.30
2018-05-23T06:26:47.776Z,19.20
2018-05-23T06:27:48.869Z,19.30
2018-05-23T06:28:50.672Z,19.30
2018-05-23T06:29:51.744Z,19.30
2018-05-23T06:30:52.823Z,19.30
2018-05-23T06:31:53.898Z,19.50
2018-05-23T06:32:55.131Z,19.40
2018-05-23T06:33:56.869Z,19.40
2018-05-23T06:34:58.385Z,19.40
2018-05-23T06:36:00.026Z,19.50
2018-05-23T06:37:01.911Z,19.40
2018-05-23T06:38:04.374Z,19.50
2018-05-23T06:39:06.480Z,19.50
2018-05-23T06:40:07.935Z,19.40
2018-05-23T06:41:09.141Z,19.50
2018-05-23T06:42:10.643Z,19.60
2018-05-23T06:43:12.040Z,19.60
2018-05-23T06:44:13.623Z,19.60
2018-05-23T06:45:15.255Z,19.60
2018-05-23T06:47:24.771Z,19.60
2018-05-23T06:48:26.143Z,19.60
2018-05-23T06:49:27.516Z,19.60
2018-05-23T06:50:28.918Z,19.50
2018-05-23T06:51:30.435Z,19.60
2018-05-23T06:52:32.667Z,19.70
2018-05-23T06:53:36.273Z,19.70
2018-05-23T06:54:38.462Z,19.70
2018-05-23T06:55:39.909Z,19.50
2018-05-23T06:56:41.466Z,19.70
2018-05-23T06:57:43.755Z,19.70
2018-05-23T06:58:45.039Z,19.70
2018-05-23T06:59:46.312Z,19.70
2018-05-23T07:00:48.232Z,19.80
2018-05-23T07:01:49.417Z,19.70
2018-05-23T07:02:51.325Z,19.80
2018-05-23T07:03:52.402Z,19.80
2018-05-23T07:04:53.461Z,19.80
2018-05-23T07:05:54.542Z,19.80
2018-05-23T07:06:55.619Z,19.80
2018-05-23T07:07:56.703Z,19.90
2018-05-23T07:08:57.794Z,19.80
2018-05-23T07:09:58.870Z,19.80
2018-05-23T07:10:59.983Z,19.80
2018-05-23T07:12:01.018Z,19.70
2018-05-23T07:13:02.104Z,19.70
2018-05-23T07:14:03.204Z,19.80
2018-05-23T07:15:04.288Z,19.80
2018-05-23T07:16:05.375Z,19.80
2018-05-23T07:17:06.486Z,19.80
2018-05-23T07:18:07.559Z,19.90
2018-05-23T07:19:08.606Z,19.90
2018-05-23T07:20:09.662Z,19.90
2018-05-23T07:21:10.718Z,19.90
2018-05-23T07:22:11.790Z,19.90
2018-05-23T07:23:13.579Z,19.90
2018-05-23T07:24:15.090Z,19.90
2018-05-23T07:25:17.730Z,19.90
2018-05-23T07:26:18.855Z,20.00
2018-05-23T07:27:20.663Z,20.00
2018-05-23T07:28:21.723Z,20.00
2018-05-23T07:29:22.782Z,19.90
2018-05-23T07:30:24.587Z,20.00
2018-05-23T07:31:25.660Z,20.00
2018-05-23T07:32:26.766Z,20.00
2018-05-23T07:33:27.856Z,20.00
2018-05-23T07:34:28.924Z,20.10
2018-05-23T07:35:29.995Z,20.10
2018-05-23T07:36:31.063Z,20.10
2018-05-23T07:37:32.136Z,20.00
2018-05-23T07:38:33.211Z,20.10
2018-05-23T07:39:34.300Z,20.10
2018-05-23T07:40:35.360Z,20.10
2018-05-23T07:41:36.484Z,20.10
2018-05-23T07:42:37.630Z,20.20
2018-05-23T07:43:39.490Z,20.20
2018-05-23T07:44:40.495Z,20.20
2018-05-23T07:45:41.567Z,20.20
2018-05-23T07:46:42.667Z,20.30
2018-05-23T07:47:44.467Z,20.30
2018-05-23T07:48:45.518Z,20.30
2018-05-23T07:49:46.576Z,20.30
2018-05-23T07:50:47.650Z,20.30
2018-05-23T07:51:48.758Z,20.40
2018-05-23T07:52:49.868Z,20.30
2018-05-23T07:53:50.948Z,20.30
2018-05-23T07:54:52.011Z,20.30
2018-05-23T07:55:53.080Z,20.30
2018-05-23T07:56:54.155Z,20.40
2018-05-23T07:57:55.211Z,20.40
2018-05-23T07:58:56.265Z,20.20
2018-05-23T07:59:58.102Z,20.30
2018-05-23T08:00:59.248Z,20.20
2018-05-23T08:02:01.067Z,20.40
2018-05-23T08:03:02.125Z,20.40
2018-05-23T08:04:03.943Z,20.50
2018-05-23T08:05:05.001Z,20.50
2018-05-23T08:06:06.059Z,20.50
2018-05-23T08:07:07.867Z,20.60
2018-05-23T08:08:09.680Z,20.60
2018-05-23T08:09:10.763Z,20.60
2018-05-23T08:10:11.864Z,20.60
2018-05-23T08:11:12.927Z,20.60
2018-05-23T08:12:13.996Z,20.60
2018-05-23T08:13:15.079Z,20.70
2018-05-23T08:14:16.146Z,20.90
2018-05-23T08:15:17.226Z,20.80
2018-05-23T08:16:18.287Z,20.80
2018-05-23T08:17:19.354Z,20.90
2018-05-23T08:18:20.443Z,21.00
2018-05-23T08:19:21.502Z,21.00
2018-05-23T08:20:22.534Z,21.00
2018-05-23T08:21:24.338Z,21.00
2018-05-23T08:22:25.414Z,21.00
2018-05-23T08:23:27.215Z,21.00
2018-05-23T08:24:28.387Z,21.00
2018-05-23T08:25:30.156Z,21.00
2018-05-23T08:26:32.258Z,20.90
2018-05-23T08:27:34.375Z,20.90
2018-05-23T08:28:37.076Z,20.90
2018-05-23T08:29:38.130Z,20.90
2018-05-23T08:30:39.232Z,20.80
2018-05-23T08:31:40.319Z,20.90
2018-05-23T08:32:41.425Z,20.80
2018-05-23T08:33:42.495Z,20.70
2018-05-23T08:34:44.288Z,20.80
2018-05-23T08:35:45.343Z,20.80
2018-05-23T08:36:46.449Z,20.80
2018-05-23T08:37:47.709Z,20.80
2018-05-23T08:38:48.823Z,20.90
2018-05-23T08:39:49.899Z,20.80
2018-05-23T08:40:51.739Z,20.90
2018-05-23T08:41:53.584Z,20.90
2018-05-23T08:42:54.681Z,20.90
2018-05-23T08:43:59.460Z,21.00
2018-05-23T08:45:00.859Z,21.00
2018-05-23T08:46:01.993Z,21.00
2018-05-23T08:47:03.752Z,21.10
2018-05-23T08:48:04.826Z,21.10
2018-05-23T08:49:06.039Z,21.20
2018-05-23T08:50:07.069Z,21.20
2018-05-23T08:51:08.892Z,21.30
2018-05-23T08:52:09.962Z,21.30
2018-05-23T08:53:11.781Z,21.30
2018-05-23T08:54:12.927Z,21.30
2018-05-23T08:55:13.984Z,21.30
2018-05-23T08:56:15.052Z,21.30
2018-05-23T08:57:17.264Z,21.20
2018-05-23T08:58:18.485Z,21.20
2018-05-23T08:59:20.889Z,21.20
2018-05-23T09:00:22.657Z,21.20
2018-05-23T09:01:23.807Z,21.20
2018-05-23T09:02:24.880Z,21.20
2018-05-23T09:03:25.956Z,21.20
2018-05-23T09:04:27.022Z,21.20
2018-05-23T09:05:28.106Z,21.20
2018-05-23T09:06:29.162Z,21.20
2018-05-23T09:07:30.283Z,21.10
2018-05-23T09:08:31.384Z,21.20
2018-05-23T09:09:32.468Z,21.00
2018-05-23T09:10:33.538Z,21.20
2018-05-23T09:11:35.343Z,21.20
2018-05-23T09:12:36.551Z,21.20
2018-05-23T09:13:37.537Z,21.20
2018-05-23T09:14:38.630Z,21.20
2018-05-23T09:15:39.690Z,21.20
2018-05-23T09:16:40.771Z,21.30
2018-05-23T09:17:41.823Z,21.20
2018-05-23T09:18:42.910Z,21.20
2018-05-23T09:19:44.723Z,21.20
2018-05-23T09:20:45.795Z,21.20
2018-05-23T09:21:46.883Z,21.30
2018-05-23T09:22:47.982Z,21.20
2018-05-23T09:23:49.050Z,21.10
2018-05-23T09:24:50.132Z,21.10
2018-05-23T09:25:51.209Z,21.10
2018-05-23T09:26:52.283Z,21.10
2018-05-23T09:27:54.111Z,21.10
2018-05-23T09:28:55.213Z,21.10
2018-05-23T09:29:56.285Z,21.10
2018-05-23T09:30:57.339Z,21.10
2018-05-23T09:31:58.459Z,21.10
2018-05-23T09:33:00.279Z,21.10
2018-05-23T09:34:01.347Z,21.10
2018-05-23T09:35:03.164Z,21.10
2018-05-23T09:36:04.998Z,21.20
2018-05-23T09:37:06.123Z,21.20
2018-05-23T09:38:07.215Z,21.20
2018-05-23T09:39:09.734Z,21.20
2018-05-23T09:40:11.069Z,21.20
2018-05-23T09:41:13.987Z,21.20
2018-05-23T09:42:16.260Z,21.20
2018-05-23T09:43:17.737Z,21.20
2018-05-23T09:44:19.122Z,21.20
2018-05-23T09:45:22.301Z,21.30
2018-05-23T09:46:26.627Z,21.30
2018-05-23T09:47:28.704Z,21.20
2018-05-23T09:48:30.223Z,21.20
2018-05-23T09:49:31.527Z,21.20
2018-05-23T09:50:32.949Z,21.20
2018-05-23T09:51:35.013Z,21.30
2018-05-23T09:52:37.904Z,21.30
2018-05-23T09:53:39.231Z,21.30
2018-05-23T09:54:40.578Z,21.30
2018-05-23T09:55:41.879Z,21.40
2018-05-23T09:56:45.336Z,21.30
2018-05-23T09:57:47.497Z,21.30
2018-05-23T09:58:49.960Z,21.20
2018-05-23T09:59:52.139Z,21.20
2018-05-23T10:00:53.477Z,21.30
2018-05-23T10:01:54.864Z,21.10
2018-05-23T10:02:56.213Z,21.20
2018-05-23T10:03:57.316Z,21.20
2018-05-23T10:04:58.447Z,21.20
2018-05-23T10:05:59.537Z,21.30
2018-05-23T10:07:00.696Z,21.30
2018-05-23T10:08:01.804Z,21.40
2018-05-23T10:09:02.920Z,21.40
2018-05-23T10:10:04.057Z,21.40
2018-05-23T10:11:05.906Z,21.40
2018-05-23T10:12:07.037Z,21.40
2018-05-23T10:13:08.207Z,21.40
2018-05-23T10:14:09.332Z,21.50
2018-05-23T10:15:10.416Z,21.60
2018-05-23T10:16:11.492Z,21.60
2018-05-23T10:17:12.554Z,21.70
2018-05-23T10:18:13.669Z,21.70
2018-05-23T10:19:14.744Z,21.70
2018-05-23T10:20:15.819Z,21.80
2018-05-23T10:21:16.891Z,21.80
2018-05-23T10:22:17.971Z,21.90
2018-05-23T10:23:19.065Z,22.00
2018-05-23T10:24:20.178Z,22.00
2018-05-23T10:25:21.258Z,22.00
2018-05-23T10:26:23.148Z,22.10
2018-05-23T10:27:24.142Z,22.10
2018-05-23T10:28:25.214Z,22.10
2018-05-23T10:29:26.314Z,22.10
2018-05-23T10:30:28.143Z,22.20
2018-05-23T10:31:29.979Z,22.20
2018-05-23T10:32:31.035Z,22.20
2018-05-23T10:33:32.111Z,22.30
2018-05-23T10:34:33.255Z,22.20
2018-05-23T10:35:34.393Z,22.10
2018-05-23T10:36:35.463Z,22.20
2018-05-23T10:37:37.289Z,22.20
2018-05-23T10:38:38.355Z,22.10
2018-05-23T10:39:40.185Z,22.20
2018-05-23T10:40:41.244Z,22.20
2018-05-23T10:41:43.026Z,22.20
2018-05-23T10:42:44.083Z,22.20
2018-05-23T10:43:45.146Z,22.20
2018-05-23T10:44:46.976Z,22.30
2018-05-23T10:45:48.797Z,22.30
2018-05-23T10:46:49.871Z,22.20
2018-05-23T10:47:50.980Z,22.30
2018-05-23T10:48:52.055Z,22.30
2018-05-23T10:49:53.143Z,22.30
2018-05-23T10:50:54.223Z,22.40
2018-05-23T10:51:55.337Z,22.50
2018-05-23T10:52:56.387Z,22.60
2018-05-23T10:53:57.503Z,22.60
2018-05-23T10:54:59.323Z,22.70
2018-05-23T10:56:00.659Z,22.70
2018-05-23T10:57:02.291Z,22.70
2018-05-23T10:58:04.596Z,22.70
2018-05-23T10:59:06.713Z,22.80
2018-05-23T11:00:08.205Z,22.80
2018-05-23T11:01:10.270Z,22.80
2018-05-23T11:02:11.704Z,22.80
2018-05-23T11:03:13.624Z,22.90
2018-05-23T11:04:16.077Z,23.00
2018-05-23T11:05:17.427Z,23.10
2018-05-23T11:06:18.899Z,23.10
2018-05-23T11:07:20.381Z,23.20
2018-05-23T11:08:21.871Z,23.30
2018-05-23T11:09:23.230Z,23.40
2018-05-23T11:10:24.607Z,23.40
2018-05-23T11:11:26.069Z,23.50
2018-05-23T11:12:27.409Z,23.60
2018-05-23T11:13:28.823Z,23.60
2018-05-23T11:14:30.232Z,23.50
2018-05-23T11:15:31.537Z,23.60
2018-05-23T11:16:33.421Z,23.40
2018-05-23T11:17:34.492Z,23.40
2018-05-23T11:18:35.555Z,23.40
2018-05-23T11:19:37.378Z,23.40
2018-05-23T11:20:38.448Z,23.40
2018-05-23T11:21:39.551Z,23.40
2018-05-23T11:22:40.602Z,23.40
2018-05-23T11:23:42.412Z,23.40
2018-05-23T11:24:43.494Z,23.40
2018-05-23T11:25:44.578Z,23.50
2018-05-23T11:26:45.656Z,23.40
2018-05-23T11:27:47.467Z,23.60
2018-05-23T11:28:48.538Z,23.60
2018-05-23T11:29:50.424Z,23.70
2018-05-23T11:30:51.447Z,23.70
2018-05-23T11:31:52.490Z,23.90
2018-05-23T11:32:53.555Z,23.90
2018-05-23T11:33:54.614Z,24.00
2018-05-23T11:34:55.685Z,24.00
2018-05-23T11:35:56.738Z,24.00
2018-05-23T11:36:57.839Z,24.00
2018-05-23T11:37:59.645Z,23.80
2018-05-23T11:39:00.754Z,23.80
2018-05-23T11:40:01.840Z,23.70
2018-05-23T11:41:02.911Z,23.70
2018-05-23T11:42:03.983Z,23.60
2018-05-23T11:43:05.058Z,23.50
2018-05-23T11:44:06.142Z,23.50
2018-05-23T11:45:07.202Z,23.60
2018-05-23T11:46:09.038Z,23.70
2018-05-23T11:47:10.837Z,23.80
2018-05-23T11:48:11.919Z,23.80
2018-05-23T11:49:12.993Z,23.80
2018-05-23T11:50:14.867Z,23.90
2018-05-23T11:51:15.938Z,23.90
2018-05-23T11:52:17.023Z,24.00
2018-05-23T11:53:18.084Z,24.10
2018-05-23T11:54:19.891Z,24.20
2018-05-23T11:55:20.976Z,24.20
2018-05-23T11:56:22.082Z,24.30
2018-05-23T11:57:23.180Z,24.30
2018-05-23T11:58:24.262Z,24.30
2018-05-23T11:59:26.053Z,24.20
2018-05-23T12:00:27.181Z,24.20
2018-05-23T12:01:28.276Z,24.10
2018-05-23T12:02:31.816Z,24.00
2018-05-23T12:03:33.059Z,23.90
2018-05-23T12:04:34.156Z,23.90
2018-05-23T12:05:35.233Z,23.80
2018-05-23T12:06:36.299Z,23.80
2018-05-23T12:07:37.370Z,23.80
2018-05-23T12:08:38.439Z,23.80
2018-05-23T12:09:39.533Z,23.80
2018-05-23T12:10:40.715Z,23.80
2018-05-23T12:11:41.698Z,24.00
2018-05-23T12:12:42.795Z,24.20
2018-05-23T12:13:43.843Z,24.30
2018-05-23T12:14:44.907Z,24.40
2018-05-23T12:15:45.979Z,24.50
2018-05-23T12:16:47.066Z,24.60
2018-05-23T12:17:48.131Z,24.80
2018-05-23T12:18:49.199Z,24.90
2018-05-23T12:19:50.272Z,25.00
2018-05-23T12:20:51.348Z,24.90
2018-05-23T12:21:53.187Z,24.90
2018-05-23T12:22:54.271Z,24.90
2018-05-23T12:23:55.323Z,24.70
2018-05-23T12:24:56.367Z,24.80
2018-05-23T12:25:57.427Z,24.80
2018-05-23T12:26:59.263Z,24.80
2018-05-23T12:28:00.324Z,24.80
2018-05-23T12:29:02.126Z,25.00
2018-05-23T12:30:03.192Z,24.90
2018-05-23T12:31:04.254Z,25.00
2018-05-23T12:32:05.337Z,25.00
2018-05-23T12:33:06.402Z,25.00
2018-05-23T12:34:07.484Z,25.10
2018-05-23T12:35:08.548Z,25.20
2018-05-23T12:36:09.611Z,25.30
2018-05-23T12:37:10.695Z,25.40
2018-05-23T12:38:11.768Z,25.40
2018-05-23T12:39:12.907Z,25.50
2018-05-23T12:40:13.982Z,25.50
2018-05-23T12:41:15.211Z,25.60
2018-05-23T12:42:16.307Z,25.50
2018-05-23T12:43:17.374Z,25.60
2018-05-23T12:44:18.443Z,25.70
2018-05-23T12:45:20.259Z,25.80
2018-05-23T12:46:21.335Z,25.80
2018-05-23T12:47:23.140Z,25.80
2018-05-23T12:48:24.229Z,25.80
2018-05-23T12:49:25.320Z,25.80
2018-05-23T12:50:26.398Z,25.90
2018-05-23T12:51:27.479Z,25.90
2018-05-23T12:52:28.563Z,25.90
2018-05-23T12:53:29.657Z,25.80
2018-05-23T12:54:30.716Z,25.80
2018-05-23T12:55:31.791Z,25.80
2018-05-23T12:56:32.847Z,25.80
2018-05-23T12:57:33.924Z,26.00
2018-05-23T12:58:34.999Z,26.00
2018-05-23T12:59:36.080Z,25.90
2018-05-23T13:00:37.867Z,26.00
2018-05-23T13:01:38.936Z,26.00
2018-05-23T13:02:40.755Z,26.10
2018-05-23T13:03:41.813Z,26.10
2018-05-23T13:04:43.396Z,26.10
2018-05-23T13:05:45.385Z,26.10
2018-05-23T13:06:47.589Z,26.30
2018-05-23T13:07:51.139Z,26.30
2018-05-23T13:08:52.660Z,26.50
2018-05-23T13:09:55.142Z,26.60
2018-05-23T13:10:56.561Z,26.60
2018-05-23T13:11:58.697Z,26.90
2018-05-23T13:13:00.984Z,26.90
2018-05-23T13:14:03.185Z,27.00
2018-05-23T13:15:04.530Z,27.00
2018-05-23T13:16:05.908Z,27.10